Lake Hiawatha, New Jersey
Current Conditions -  °F | °C
As of 6:29 AM on Sunday 21 Dec 2014 (Local Time) from KCDW Reporting Station
Overcast Overcast  
Wind Chill: 30°   Ceiling: 1500
Heat Index: 30°   Visibility: 10mi
Dew Point: 25°   Wind: 0mph
Humidity: 82%   Direction: NA
Pressure: 30.3"   Gusts: NA
Location:  40.88°N, 74.38°W
Report Text: KCDW 211129Z AUTO 00000KT 10SM OVC015 M01/M04 A3030 RMK AO2 T10111039 TSNO
Loading
Personal Weather Stations






























Interactive Weather Map New forecast layout! Learn more

10-Day Weather Forecast

Advertisements
Track Severe Weather on mobile